sensor_id;sensor_type;location;lat;lon;timestamp;P1;durP1;ratioP1;P2;durP2;ratioP2
45366;SDS011;31100;55.848;37.636;2023-05-10T00:01:53;9.85;;;5.22;;
45366;SDS011;31100;55.848;37.636;2023-05-10T00:04:19;11.75;;;6.20;;
45366;SDS011;31100;55.848;37.636;2023-05-10T00:06:45;10.32;;;5.60;;
45366;SDS011;31100;55.848;37.636;2023-05-10T00:09:10;14.10;;;5.82;;
45366;SDS011;31100;55.848;37.636;2023-05-10T00:11:36;11.27;;;6.00;;
45366;SDS011;31100;55.848;37.636;2023-05-10T00:14:01;9.23;;;5.25;;
45366;SDS011;31100;55.848;37.636;2023-05-10T00:16:27;12.13;;;5.88;;
45366;SDS011;31100;55.848;37.636;2023-05-10T00:18:52;9.38;;;6.20;;
45366;SDS011;31100;55.848;37.636;2023-05-10T00:21:19;10.07;;;6.03;;
45366;SDS011;31100;55.848;37.636;2023-05-10T00:23:45;13.05;;;6.28;;
45366;SDS011;31100;55.848;37.636;2023-05-10T00:26:10;9.90;;;5.40;;
45366;SDS011;31100;55.848;37.636;2023-05-10T00:28:37;8.20;;;5.20;;
45366;SDS011;31100;55.848;37.636;2023-05-10T00:31:03;13.90;;;6.15;;
45366;SDS011;31100;55.848;37.636;2023-05-10T00:33:28;12.05;;;5.60;;
45366;SDS011;31100;55.848;37.636;2023-05-10T00:35:54;11.98;;;6.05;;
45366;SDS011;31100;55.848;37.636;2023-05-10T00:38:19;10.18;;;5.55;;
45366;SDS011;31100;55.848;37.636;2023-05-10T00:40:46;10.50;;;6.05;;
45366;SDS011;31100;55.848;37.636;2023-05-10T00:43:12;9.23;;;5.30;;
45366;SDS011;31100;55.848;37.636;2023-05-10T00:45:37;9.50;;;5.40;;
45366;SDS011;31100;55.848;37.636;2023-05-10T00:48:05;11.77;;;5.45;;
45366;SDS011;31100;55.848;37.636;2023-05-10T00:50:31;12.70;;;5.75;;
45366;SDS011;31100;55.848;37.636;2023-05-10T00:52:59;11.73;;;5.82;;
45366;SDS011;31100;55.848;37.636;2023-05-10T00:55:26;10.43;;;5.40;;
45366;SDS011;31100;55.848;37.636;2023-05-10T00:57:52;10.93;;;6.13;;
45366;SDS011;31100;55.848;37.636;2023-05-10T01:00:19;9.98;;;5.80;;
45366;SDS011;31100;55.848;37.636;2023-05-10T01:02:45;12.05;;;5.60;;
45366;SDS011;31100;55.848;37.636;2023-05-10T01:05:11;12.40;;;5.82;;
45366;SDS011;31100;55.848;37.636;2023-05-10T01:07:38;11.75;;;5.55;;
45366;SDS011;31100;55.848;37.636;2023-05-10T01:10:04;11.40;;;6.00;;
45366;SDS011;31100;55.848;37.636;2023-05-10T01:12:34;10.43;;;5.63;;
45366;SDS011;31100;55.848;37.636;2023-05-10T01:15:00;10.30;;;5.82;;
45366;SDS011;31100;55.848;37.636;2023-05-10T01:17:26;10.70;;;6.10;;
45366;SDS011;31100;55.848;37.636;2023-05-10T01:19:52;11.70;;;5.35;;
45366;SDS011;31100;55.848;37.636;2023-05-10T01:38:52;10.82;;;5.70;;
45366;SDS011;31100;55.848;37.636;2023-05-10T01:41:35;11.52;;;6.05;;
45366;SDS011;31100;55.848;37.636;2023-05-10T01:46:39;11.57;;;6.13;;
45366;SDS011;31100;55.848;37.636;2023-05-10T01:49:10;9.80;;;6.10;;
45366;SDS011;31100;55.848;37.636;2023-05-10T01:51:50;14.88;;;6.50;;
45366;SDS011;31100;55.848;37.636;2023-05-10T01:54:17;12.65;;;5.75;;
45366;SDS011;31100;55.848;37.636;2023-05-10T01:56:44;12.55;;;6.72;;
45366;SDS011;31100;55.848;37.636;2023-05-10T01:59:13;11.05;;;5.32;;
45366;SDS011;31100;55.848;37.636;2023-05-10T02:01:42;13.38;;;6.07;;
45366;SDS011;31100;55.848;37.636;2023-05-10T02:04:08;12.02;;;6.10;;
45366;SDS011;31100;55.848;37.636;2023-05-10T02:06:34;11.88;;;5.65;;
45366;SDS011;31100;55.848;37.636;2023-05-10T02:09:00;10.07;;;6.28;;
45366;SDS011;31100;55.848;37.636;2023-05-10T02:11:27;9.25;;;5.72;;
45366;SDS011;31100;55.848;37.636;2023-05-10T02:13:52;9.90;;;6.03;;
45366;SDS011;31100;55.848;37.636;2023-05-10T02:16:18;10.88;;;6.05;;
45366;SDS011;31100;55.848;37.636;2023-05-10T02:18:49;12.82;;;5.78;;
45366;SDS011;31100;55.848;37.636;2023-05-10T02:21:16;11.57;;;5.88;;
45366;SDS011;31100;55.848;37.636;2023-05-10T02:23:42;10.40;;;6.43;;
45366;SDS011;31100;55.848;37.636;2023-05-10T02:26:08;12.88;;;6.18;;
45366;SDS011;31100;55.848;37.636;2023-05-10T02:28:34;9.35;;;5.80;;
45366;SDS011;31100;55.848;37.636;2023-05-10T02:31:00;9.35;;;5.72;;
45366;SDS011;31100;55.848;37.636;2023-05-10T02:33:26;9.98;;;6.10;;
45366;SDS011;31100;55.848;37.636;2023-05-10T02:35:52;9.43;;;6.32;;
45366;SDS011;31100;55.848;37.636;2023-05-10T02:38:19;12.75;;;6.13;;
45366;SDS011;31100;55.848;37.636;2023-05-10T02:40:46;9.65;;;6.43;;
45366;SDS011;31100;55.848;37.636;2023-05-10T02:43:13;10.18;;;6.43;;
45366;SDS011;31100;55.848;37.636;2023-05-10T02:45:39;12.25;;;6.13;;
45366;SDS011;31100;55.848;37.636;2023-05-10T02:48:05;10.27;;;6.18;;
45366;SDS011;31100;55.848;37.636;2023-05-10T02:50:32;11.55;;;6.18;;
45366;SDS011;31100;55.848;37.636;2023-05-10T02:53:03;12.07;;;6.38;;
45366;SDS011;31100;55.848;37.636;2023-05-10T02:55:44;11.45;;;6.55;;
45366;SDS011;31100;55.848;37.636;2023-05-10T02:58:12;10.65;;;6.30;;
45366;SDS011;31100;55.848;37.636;2023-05-10T03:00:38;11.57;;;6.32;;
45366;SDS011;31100;55.848;37.636;2023-05-10T03:03:03;11.50;;;6.28;;
45366;SDS011;31100;55.848;37.636;2023-05-10T03:05:29;9.60;;;6.13;;
45366;SDS011;31100;55.848;37.636;2023-05-10T03:07:54;9.85;;;6.75;;
45366;SDS011;31100;55.848;37.636;2023-05-10T03:10:21;10.60;;;6.28;;
45366;SDS011;31100;55.848;37.636;2023-05-10T03:13:12;11.35;;;6.20;;
45366;SDS011;31100;55.848;37.636;2023-05-10T03:15:55;10.52;;;6.60;;
45366;SDS011;31100;55.848;37.636;2023-05-10T03:18:28;10.90;;;6.43;;
45366;SDS011;31100;55.848;37.636;2023-05-10T03:20:56;13.75;;;6.30;;
45366;SDS011;31100;55.848;37.636;2023-05-10T03:23:30;11.57;;;6.30;;
45366;SDS011;31100;55.848;37.636;2023-05-10T03:26:00;10.35;;;6.13;;
45366;SDS011;31100;55.848;37.636;2023-05-10T03:28:26;13.65;;;6.15;;
45366;SDS011;31100;55.848;37.636;2023-05-10T03:30:52;10.65;;;6.28;;
45366;SDS011;31100;55.848;37.636;2023-05-10T03:33:19;8.98;;;5.95;;
45366;SDS011;31100;55.848;37.636;2023-05-10T03:35:45;12.52;;;6.30;;
45366;SDS011;31100;55.848;37.636;2023-05-10T03:38:11;9.27;;;5.40;;
45366;SDS011;31100;55.848;37.636;2023-05-10T03:40:37;11.27;;;6.35;;
45366;SDS011;31100;55.848;37.636;2023-05-10T03:43:02;12.75;;;6.57;;
45366;SDS011;31100;55.848;37.636;2023-05-10T03:45:28;12.43;;;6.22;;
45366;SDS011;31100;55.848;37.636;2023-05-10T03:47:53;12.98;;;6.40;;
45366;SDS011;31100;55.848;37.636;2023-05-10T03:50:19;11.90;;;6.68;;
45366;SDS011;31100;55.848;37.636;2023-05-10T03:52:45;14.68;;;6.80;;
45366;SDS011;31100;55.848;37.636;2023-05-10T03:55:10;14.75;;;6.40;;
45366;SDS011;31100;55.848;37.636;2023-05-10T03:57:36;15.00;;;7.20;;
45366;SDS011;31100;55.848;37.636;2023-05-10T04:00:02;13.93;;;6.55;;
45366;SDS011;31100;55.848;37.636;2023-05-10T04:02:29;10.32;;;6.00;;
45366;SDS011;31100;55.848;37.636;2023-05-10T04:04:55;10.43;;;5.13;;
45366;SDS011;31100;55.848;37.636;2023-05-10T04:07:21;11.80;;;5.93;;
45366;SDS011;31100;55.848;37.636;2023-05-10T04:09:46;13.82;;;5.90;;
45366;SDS011;31100;55.848;37.636;2023-05-10T04:12:12;10.80;;;5.95;;
45366;SDS011;31100;55.848;37.636;2023-05-10T04:14:37;13.98;;;6.57;;
45366;SDS011;31100;55.848;37.636;2023-05-10T04:17:03;11.05;;;6.00;;
45366;SDS011;31100;55.848;37.636;2023-05-10T04:19:29;15.50;;;6.32;;
45366;SDS011;31100;55.848;37.636;2023-05-10T04:21:55;12.35;;;6.82;;
45366;SDS011;31100;55.848;37.636;2023-05-10T04:24:21;13.85;;;6.75;;
45366;SDS011;31100;55.848;37.636;2023-05-10T04:26:46;13.45;;;6.43;;
45366;SDS011;31100;55.848;37.636;2023-05-10T04:29:12;15.15;;;7.10;;
45366;SDS011;31100;55.848;37.636;2023-05-10T04:31:37;16.60;;;6.55;;
45366;SDS011;31100;55.848;37.636;2023-05-10T04:34:03;15.27;;;6.40;;
45366;SDS011;31100;55.848;37.636;2023-05-10T04:36:29;16.92;;;6.40;;
45366;SDS011;31100;55.848;37.636;2023-05-10T04:38:54;12.93;;;6.40;;
45366;SDS011;31100;55.848;37.636;2023-05-10T04:41:20;15.63;;;6.43;;
45366;SDS011;31100;55.848;37.636;2023-05-10T04:43:45;11.95;;;6.30;;
45366;SDS011;31100;55.848;37.636;2023-05-10T04:46:11;13.73;;;6.28;;
45366;SDS011;31100;55.848;37.636;2023-05-10T04:48:36;14.45;;;6.03;;
45366;SDS011;31100;55.848;37.636;2023-05-10T04:51:02;13.30;;;6.10;;
45366;SDS011;31100;55.848;37.636;2023-05-10T04:53:29;16.02;;;8.18;;
45366;SDS011;31100;55.848;37.636;2023-05-10T04:55:54;11.50;;;6.50;;
45366;SDS011;31100;55.848;37.636;2023-05-10T04:58:20;14.55;;;6.72;;
45366;SDS011;31100;55.848;37.636;2023-05-10T05:00:46;13.90;;;6.85;;
45366;SDS011;31100;55.848;37.636;2023-05-10T05:03:11;14.18;;;6.60;;
45366;SDS011;31100;55.848;37.636;2023-05-10T05:05:37;16.30;;;6.32;;
45366;SDS011;31100;55.848;37.636;2023-05-10T05:08:02;15.25;;;5.75;;
45366;SDS011;31100;55.848;37.636;2023-05-10T05:10:28;12.68;;;6.25;;
45366;SDS011;31100;55.848;37.636;2023-05-10T05:12:54;16.42;;;5.90;;
45366;SDS011;31100;55.848;37.636;2023-05-10T05:15:19;12.35;;;5.50;;
45366;SDS011;31100;55.848;37.636;2023-05-10T05:17:44;11.82;;;5.70;;
45366;SDS011;31100;55.848;37.636;2023-05-10T05:20:10;15.45;;;5.90;;
45366;SDS011;31100;55.848;37.636;2023-05-10T05:22:36;11.20;;;5.80;;
45366;SDS011;31100;55.848;37.636;2023-05-10T05:25:02;12.57;;;5.55;;
45366;SDS011;31100;55.848;37.636;2023-05-10T05:27:28;11.98;;;5.25;;
45366;SDS011;31100;55.848;37.636;2023-05-10T05:29:54;11.43;;;5.30;;
45366;SDS011;31100;55.848;37.636;2023-05-10T05:32:20;10.80;;;5.25;;
45366;SDS011;31100;55.848;37.636;2023-05-10T05:34:47;16.33;;;5.57;;
45366;SDS011;31100;55.848;37.636;2023-05-10T05:37:14;9.15;;;4.70;;
45366;SDS011;31100;55.848;37.636;2023-05-10T05:39:43;12.77;;;4.55;;
45366;SDS011;31100;55.848;37.636;2023-05-10T05:42:09;12.00;;;4.65;;
45366;SDS011;31100;55.848;37.636;2023-05-10T05:44:35;14.20;;;5.35;;
45366;SDS011;31100;55.848;37.636;2023-05-10T05:47:01;12.00;;;4.70;;
45366;SDS011;31100;55.848;37.636;2023-05-10T05:49:26;10.65;;;4.80;;
45366;SDS011;31100;55.848;37.636;2023-05-10T05:51:52;12.13;;;4.43;;
45366;SDS011;31100;55.848;37.636;2023-05-10T05:54:19;7.38;;;4.20;;
45366;SDS011;31100;55.848;37.636;2023-05-10T05:56:44;13.07;;;4.68;;
45366;SDS011;31100;55.848;37.636;2023-05-10T05:59:10;11.70;;;4.50;;
45366;SDS011;31100;55.848;37.636;2023-05-10T06:01:36;9.93;;;4.50;;
45366;SDS011;31100;55.848;37.636;2023-05-10T06:04:01;12.07;;;4.78;;
45366;SDS011;31100;55.848;37.636;2023-05-10T06:06:27;9.65;;;4.38;;
45366;SDS011;31100;55.848;37.636;2023-05-10T06:08:52;13.40;;;4.40;;
45366;SDS011;31100;55.848;37.636;2023-05-10T06:11:18;12.52;;;4.03;;
45366;SDS011;31100;55.848;37.636;2023-05-10T06:13:44;11.02;;;3.65;;
45366;SDS011;31100;55.848;37.636;2023-05-10T06:16:09;10.80;;;4.55;;
45366;SDS011;31100;55.848;37.636;2023-05-10T06:18:35;9.07;;;3.67;;
45366;SDS011;31100;55.848;37.636;2023-05-10T06:21:01;13.52;;;3.75;;
45366;SDS011;31100;55.848;37.636;2023-05-10T06:23:26;12.90;;;4.00;;
45366;SDS011;31100;55.848;37.636;2023-05-10T06:25:52;15.50;;;4.20;;
45366;SDS011;31100;55.848;37.636;2023-05-10T06:28:17;12.00;;;4.40;;
45366;SDS011;31100;55.848;37.636;2023-05-10T06:30:43;10.07;;;4.10;;
45366;SDS011;31100;55.848;37.636;2023-05-10T06:33:09;17.30;;;4.07;;
45366;SDS011;31100;55.848;37.636;2023-05-10T06:35:34;7.50;;;3.97;;
45366;SDS011;31100;55.848;37.636;2023-05-10T06:38:01;8.75;;;3.58;;
45366;SDS011;31100;55.848;37.636;2023-05-10T06:40:27;10.02;;;3.83;;
45366;SDS011;31100;55.848;37.636;2023-05-10T06:42:53;7.60;;;4.00;;
45366;SDS011;31100;55.848;37.636;2023-05-10T06:45:18;12.52;;;3.92;;
45366;SDS011;31100;55.848;37.636;2023-05-10T06:47:44;10.93;;;4.28;;
45366;SDS011;31100;55.848;37.636;2023-05-10T06:50:09;13.40;;;4.07;;
45366;SDS011;31100;55.848;37.636;2023-05-10T06:52:38;9.52;;;4.18;;
45366;SDS011;31100;55.848;37.636;2023-05-10T06:55:04;7.95;;;3.80;;
45366;SDS011;31100;55.848;37.636;2023-05-10T06:57:30;11.63;;;4.35;;
45366;SDS011;31100;55.848;37.636;2023-05-10T06:59:56;8.20;;;4.10;;
45366;SDS011;31100;55.848;37.636;2023-05-10T07:02:23;10.88;;;4.40;;
45366;SDS011;31100;55.848;37.636;2023-05-10T07:04:48;9.50;;;4.50;;
45366;SDS011;31100;55.848;37.636;2023-05-10T07:07:14;9.73;;;4.35;;
45366;SDS011;31100;55.848;37.636;2023-05-10T07:09:40;15.25;;;4.43;;
45366;SDS011;31100;55.848;37.636;2023-05-10T07:12:12;11.52;;;4.32;;
45366;SDS011;31100;55.848;37.636;2023-05-10T07:14:38;10.00;;;4.97;;
45366;SDS011;31100;55.848;37.636;2023-05-10T07:17:03;11.38;;;4.30;;
45366;SDS011;31100;55.848;37.636;2023-05-10T07:19:29;11.20;;;4.55;;
45366;SDS011;31100;55.848;37.636;2023-05-10T07:21:54;14.57;;;5.75;;
45366;SDS011;31100;55.848;37.636;2023-05-10T07:24:23;10.82;;;4.75;;
45366;SDS011;31100;55.848;37.636;2023-05-10T07:26:49;9.18;;;4.22;;
45366;SDS011;31100;55.848;37.636;2023-05-10T07:29:15;8.95;;;4.20;;
45366;SDS011;31100;55.848;37.636;2023-05-10T07:31:40;8.20;;;4.63;;
45366;SDS011;31100;55.848;37.636;2023-05-10T07:34:07;9.43;;;4.57;;
45366;SDS011;31100;55.848;37.636;2023-05-10T07:36:34;12.68;;;4.45;;
45366;SDS011;31100;55.848;37.636;2023-05-10T07:39:00;9.20;;;4.38;;
45366;SDS011;31100;55.848;37.636;2023-05-10T07:41:26;19.77;;;4.90;;
45366;SDS011;31100;55.848;37.636;2023-05-10T07:43:52;11.50;;;4.78;;
45366;SDS011;31100;55.848;37.636;2023-05-10T07:46:17;9.05;;;4.20;;
45366;SDS011;31100;55.848;37.636;2023-05-10T07:48:44;13.32;;;4.65;;
45366;SDS011;31100;55.848;37.636;2023-05-10T07:51:10;10.30;;;3.97;;
45366;SDS011;31100;55.848;37.636;2023-05-10T07:53:37;9.50;;;4.18;;
45366;SDS011;31100;55.848;37.636;2023-05-10T07:58:57;8.50;;;3.58;;
45366;SDS011;31100;55.848;37.636;2023-05-10T08:01:23;7.63;;;4.28;;
45366;SDS011;31100;55.848;37.636;2023-05-10T08:03:49;11.50;;;4.82;;
45366;SDS011;31100;55.848;37.636;2023-05-10T08:06:16;12.20;;;4.25;;
45366;SDS011;31100;55.848;37.636;2023-05-10T08:08:43;7.53;;;3.35;;
45366;SDS011;31100;55.848;37.636;2023-05-10T08:11:10;10.07;;;3.42;;
45366;SDS011;31100;55.848;37.636;2023-05-10T08:13:36;7.03;;;3.42;;
45366;SDS011;31100;55.848;37.636;2023-05-10T08:16:02;10.00;;;3.58;;
45366;SDS011;31100;55.848;37.636;2023-05-10T08:18:28;8.25;;;3.58;;
45366;SDS011;31100;55.848;37.636;2023-05-10T08:20:53;6.35;;;2.47;;
45366;SDS011;31100;55.848;37.636;2023-05-10T08:23:19;4.28;;;1.80;;
45366;SDS011;31100;55.848;37.636;2023-05-10T08:25:44;3.70;;;1.50;;
45366;SDS011;31100;55.848;37.636;2023-05-10T08:28:10;6.15;;;2.05;;
45366;SDS011;31100;55.848;37.636;2023-05-10T08:30:35;6.45;;;2.63;;
45366;SDS011;31100;55.848;37.636;2023-05-10T08:33:01;6.47;;;2.80;;
45366;SDS011;31100;55.848;37.636;2023-05-10T08:35:26;5.20;;;2.40;;
45366;SDS011;31100;55.848;37.636;2023-05-10T08:37:52;6.70;;;2.42;;
45366;SDS011;31100;55.848;37.636;2023-05-10T08:40:19;6.90;;;2.55;;
45366;SDS011;31100;55.848;37.636;2023-05-10T08:42:54;8.70;;;2.95;;
45366;SDS011;31100;55.848;37.636;2023-05-10T08:45:22;6.57;;;3.15;;
45366;SDS011;31100;55.848;37.636;2023-05-10T08:47:48;6.28;;;2.50;;
45366;SDS011;31100;55.848;37.636;2023-05-10T08:50:15;6.07;;;3.00;;
45366;SDS011;31100;55.848;37.636;2023-05-10T08:52:41;6.13;;;2.63;;
45366;SDS011;31100;55.848;37.636;2023-05-10T08:55:07;5.82;;;2.50;;
45366;SDS011;31100;55.848;37.636;2023-05-10T08:57:32;6.93;;;2.22;;
45366;SDS011;31100;55.848;37.636;2023-05-10T08:59:59;4.60;;;2.20;;
45366;SDS011;31100;55.848;37.636;2023-05-10T09:02:25;7.38;;;2.90;;
45366;SDS011;31100;55.848;37.636;2023-05-10T09:04:51;4.65;;;2.10;;
45366;SDS011;31100;55.848;37.636;2023-05-10T09:07:17;4.80;;;2.25;;
45366;SDS011;31100;55.848;37.636;2023-05-10T09:09:43;4.75;;;2.25;;
45366;SDS011;31100;55.848;37.636;2023-05-10T09:12:09;4.95;;;2.15;;
45366;SDS011;31100;55.848;37.636;2023-05-10T09:14:36;8.00;;;2.90;;
45366;SDS011;31100;55.848;37.636;2023-05-10T09:17:03;7.18;;;2.90;;
45366;SDS011;31100;55.848;37.636;2023-05-10T09:19:29;6.45;;;2.95;;
45366;SDS011;31100;55.848;37.636;2023-05-10T09:21:55;5.93;;;1.98;;
45366;SDS011;31100;55.848;37.636;2023-05-10T09:24:24;4.97;;;2.08;;
45366;SDS011;31100;55.848;37.636;2023-05-10T09:26:50;5.93;;;2.78;;
45366;SDS011;31100;55.848;37.636;2023-05-10T09:29:16;8.18;;;2.47;;
45366;SDS011;31100;55.848;37.636;2023-05-10T09:34:11;4.03;;;1.50;;
45366;SDS011;31100;55.848;37.636;2023-05-10T09:36:55;4.75;;;1.70;;
45366;SDS011;31100;55.848;37.636;2023-05-10T09:39:32;4.05;;;1.70;;
45366;SDS011;31100;55.848;37.636;2023-05-10T09:42:04;4.68;;;1.80;;
45366;SDS011;31100;55.848;37.636;2023-05-10T09:44:31;3.72;;;1.67;;
45366;SDS011;31100;55.848;37.636;2023-05-10T09:46:57;6.22;;;1.45;;
45366;SDS011;31100;55.848;37.636;2023-05-10T09:49:23;5.28;;;1.88;;
45366;SDS011;31100;55.848;37.636;2023-05-10T09:52:05;4.85;;;1.50;;
45366;SDS011;31100;55.848;37.636;2023-05-10T09:54:31;2.53;;;1.20;;
45366;SDS011;31100;55.848;37.636;2023-05-10T09:56:57;2.83;;;1.30;;
45366;SDS011;31100;55.848;37.636;2023-05-10T09:59:24;3.05;;;1.45;;
45366;SDS011;31100;55.848;37.636;2023-05-10T10:01:51;2.58;;;1.30;;
45366;SDS011;31100;55.848;37.636;2023-05-10T10:04:17;2.60;;;1.30;;
45366;SDS011;31100;55.848;37.636;2023-05-10T10:06:43;3.42;;;1.45;;
45366;SDS011;31100;55.848;37.636;2023-05-10T10:09:08;5.28;;;1.75;;
45366;SDS011;31100;55.848;37.636;2023-05-10T10:11:35;3.85;;;1.40;;
45366;SDS011;31100;55.848;37.636;2023-05-10T10:14:01;3.03;;;1.30;;
45366;SDS011;31100;55.848;37.636;2023-05-10T10:16:28;4.43;;;1.38;;
45366;SDS011;31100;55.848;37.636;2023-05-10T10:18:55;4.30;;;2.00;;
45366;SDS011;31100;55.848;37.636;2023-05-10T10:21:21;3.13;;;1.60;;
45366;SDS011;31100;55.848;37.636;2023-05-10T10:23:47;4.22;;;1.60;;
45366;SDS011;31100;55.848;37.636;2023-05-10T10:26:13;3.15;;;1.40;;
45366;SDS011;31100;55.848;37.636;2023-05-10T10:28:43;3.90;;;1.60;;
45366;SDS011;31100;55.848;37.636;2023-05-10T10:36:39;4.68;;;2.08;;
45366;SDS011;31100;55.848;37.636;2023-05-10T10:39:09;5.47;;;1.60;;
45366;SDS011;31100;55.848;37.636;2023-05-10T10:41:36;4.00;;;1.67;;
45366;SDS011;31100;55.848;37.636;2023-05-10T10:49:49;3.67;;;1.50;;
45366;SDS011;31100;55.848;37.636;2023-05-10T10:57:31;4.00;;;1.52;;
45366;SDS011;31100;55.848;37.636;2023-05-10T11:03:08;2.60;;;1.63;;
45366;SDS011;31100;55.848;37.636;2023-05-10T11:08:28;5.38;;;1.60;;
45366;SDS011;31100;55.848;37.636;2023-05-10T11:16:09;4.18;;;1.95;;
45366;SDS011;31100;55.848;37.636;2023-05-10T11:18:52;3.63;;;1.80;;
45366;SDS011;31100;55.848;37.636;2023-05-10T11:21:18;3.35;;;1.80;;
45366;SDS011;31100;55.848;37.636;2023-05-10T11:23:48;7.57;;;5.10;;
45366;SDS011;31100;55.848;37.636;2023-05-10T11:26:15;4.95;;;2.97;;
45366;SDS011;31100;55.848;37.636;2023-05-10T11:28:44;5.90;;;2.00;;
45366;SDS011;31100;55.848;37.636;2023-05-10T11:31:14;3.03;;;1.60;;
45366;SDS011;31100;55.848;37.636;2023-05-10T11:36:19;4.00;;;1.90;;
45366;SDS011;31100;55.848;37.636;2023-05-10T11:38:46;4.47;;;2.10;;
45366;SDS011;31100;55.848;37.636;2023-05-10T11:41:12;5.82;;;2.25;;
45366;SDS011;31100;55.848;37.636;2023-05-10T11:43:39;3.53;;;1.70;;
45366;SDS011;31100;55.848;37.636;2023-05-10T11:46:05;4.75;;;1.98;;
45366;SDS011;31100;55.848;37.636;2023-05-10T11:48:32;3.65;;;1.80;;
45366;SDS011;31100;55.848;37.636;2023-05-10T11:50:58;4.13;;;1.92;;
45366;SDS011;31100;55.848;37.636;2023-05-10T11:53:26;3.10;;;1.80;;
45366;SDS011;31100;55.848;37.636;2023-05-10T11:55:52;8.23;;;5.35;;
45366;SDS011;31100;55.848;37.636;2023-05-10T11:58:18;4.05;;;1.95;;
45366;SDS011;31100;55.848;37.636;2023-05-10T12:00:44;5.28;;;2.03;;
45366;SDS011;31100;55.848;37.636;2023-05-10T12:03:10;4.93;;;1.73;;
45366;SDS011;31100;55.848;37.636;2023-05-10T12:05:36;3.97;;;2.00;;
45366;SDS011;31100;55.848;37.636;2023-05-10T12:08:14;3.78;;;1.67;;
45366;SDS011;31100;55.848;37.636;2023-05-10T12:10:41;3.97;;;2.20;;
45366;SDS011;31100;55.848;37.636;2023-05-10T12:13:13;5.45;;;2.28;;
45366;SDS011;31100;55.848;37.636;2023-05-10T12:15:39;4.32;;;2.25;;
45366;SDS011;31100;55.848;37.636;2023-05-10T12:18:05;7.10;;;2.53;;
45366;SDS011;31100;55.848;37.636;2023-05-10T12:20:31;3.40;;;1.92;;
45366;SDS011;31100;55.848;37.636;2023-05-10T12:22:57;3.83;;;1.95;;
45366;SDS011;31100;55.848;37.636;2023-05-10T12:25:24;4.68;;;1.77;;
45366;SDS011;31100;55.848;37.636;2023-05-10T12:27:56;4.22;;;1.83;;
45366;SDS011;31100;55.848;37.636;2023-05-10T12:30:26;5.18;;;2.05;;
45366;SDS011;31100;55.848;37.636;2023-05-10T12:32:53;5.60;;;2.00;;
45366;SDS011;31100;55.848;37.636;2023-05-10T12:35:19;8.23;;;2.28;;
45366;SDS011;31100;55.848;37.636;2023-05-10T12:37:51;4.03;;;1.80;;
45366;SDS011;31100;55.848;37.636;2023-05-10T12:40:16;3.38;;;1.85;;
45366;SDS011;31100;55.848;37.636;2023-05-10T12:42:42;4.20;;;1.80;;
45366;SDS011;31100;55.848;37.636;2023-05-10T12:45:09;5.35;;;2.80;;
45366;SDS011;31100;55.848;37.636;2023-05-10T12:47:35;4.18;;;1.75;;
45366;SDS011;31100;55.848;37.636;2023-05-10T12:50:01;4.25;;;1.83;;
45366;SDS011;31100;55.848;37.636;2023-05-10T12:52:28;3.42;;;1.83;;
45366;SDS011;31100;55.848;37.636;2023-05-10T12:54:53;6.05;;;1.90;;
45366;SDS011;31100;55.848;37.636;2023-05-10T12:57:22;5.38;;;1.92;;
45366;SDS011;31100;55.848;37.636;2023-05-10T12:59:48;3.30;;;1.70;;
45366;SDS011;31100;55.848;37.636;2023-05-10T13:02:13;7.97;;;2.33;;
45366;SDS011;31100;55.848;37.636;2023-05-10T13:04:42;4.75;;;2.53;;
45366;SDS011;31100;55.848;37.636;2023-05-10T13:07:09;5.13;;;2.67;;
45366;SDS011;31100;55.848;37.636;2023-05-10T13:09:35;3.45;;;1.80;;
45366;SDS011;31100;55.848;37.636;2023-05-10T13:12:00;5.38;;;1.83;;
45366;SDS011;31100;55.848;37.636;2023-05-10T13:14:26;5.13;;;1.80;;
45366;SDS011;31100;55.848;37.636;2023-05-10T13:16:52;3.53;;;1.75;;
45366;SDS011;31100;55.848;37.636;2023-05-10T13:19:18;5.70;;;1.85;;
45366;SDS011;31100;55.848;37.636;2023-05-10T13:21:44;6.78;;;2.20;;
45366;SDS011;31100;55.848;37.636;2023-05-10T13:24:10;4.50;;;1.80;;
45366;SDS011;31100;55.848;37.636;2023-05-10T13:26:40;5.57;;;2.30;;
45366;SDS011;31100;55.848;37.636;2023-05-10T13:29:06;5.95;;;2.30;;
45366;SDS011;31100;55.848;37.636;2023-05-10T13:31:31;4.20;;;2.08;;
45366;SDS011;31100;55.848;37.636;2023-05-10T13:33:57;4.93;;;1.98;;
45366;SDS011;31100;55.848;37.636;2023-05-10T13:36:23;5.10;;;2.00;;
45366;SDS011;31100;55.848;37.636;2023-05-10T13:38:48;5.05;;;1.98;;
45366;SDS011;31100;55.848;37.636;2023-05-10T13:41:14;4.68;;;2.00;;
45366;SDS011;31100;55.848;37.636;2023-05-10T13:43:39;6.35;;;2.22;;
45366;SDS011;31100;55.848;37.636;2023-05-10T13:46:05;5.65;;;2.00;;
45366;SDS011;31100;55.848;37.636;2023-05-10T13:48:30;5.03;;;2.28;;
45366;SDS011;31100;55.848;37.636;2023-05-10T13:50:56;4.72;;;2.20;;
45366;SDS011;31100;55.848;37.636;2023-05-10T13:53:22;5.30;;;2.00;;
45366;SDS011;31100;55.848;37.636;2023-05-10T13:55:47;5.35;;;1.95;;
45366;SDS011;31100;55.848;37.636;2023-05-10T13:58:13;4.20;;;1.70;;
45366;SDS011;31100;55.848;37.636;2023-05-10T14:00:39;4.68;;;1.85;;
45366;SDS011;31100;55.848;37.636;2023-05-10T14:03:04;5.68;;;2.00;;
45366;SDS011;31100;55.848;37.636;2023-05-10T14:05:31;4.07;;;1.80;;
45366;SDS011;31100;55.848;37.636;2023-05-10T14:07:56;6.50;;;2.17;;
45366;SDS011;31100;55.848;37.636;2023-05-10T14:10:22;4.90;;;1.90;;
45366;SDS011;31100;55.848;37.636;2023-05-10T14:12:47;5.30;;;1.98;;
45366;SDS011;31100;55.848;37.636;2023-05-10T14:15:13;5.10;;;1.90;;
45366;SDS011;31100;55.848;37.636;2023-05-10T14:17:38;5.10;;;2.10;;
45366;SDS011;31100;55.848;37.636;2023-05-10T14:20:06;4.47;;;2.17;;
45366;SDS011;31100;55.848;37.636;2023-05-10T14:22:33;5.50;;;2.10;;
45366;SDS011;31100;55.848;37.636;2023-05-10T14:24:59;4.35;;;1.92;;
45366;SDS011;31100;55.848;37.636;2023-05-10T14:27:24;4.65;;;2.28;;
45366;SDS011;31100;55.848;37.636;2023-05-10T14:29:50;6.40;;;2.00;;
45366;SDS011;31100;55.848;37.636;2023-05-10T14:32:16;4.28;;;1.80;;
45366;SDS011;31100;55.848;37.636;2023-05-10T14:34:41;7.68;;;2.40;;
45366;SDS011;31100;55.848;37.636;2023-05-10T14:37:07;4.50;;;2.13;;
45366;SDS011;31100;55.848;37.636;2023-05-10T14:39:35;3.03;;;1.50;;
45366;SDS011;31100;55.848;37.636;2023-05-10T14:42:01;5.80;;;2.22;;
45366;SDS011;31100;55.848;37.636;2023-05-10T14:44:27;4.70;;;2.20;;
45366;SDS011;31100;55.848;37.636;2023-05-10T14:46:53;5.25;;;2.20;;
45366;SDS011;31100;55.848;37.636;2023-05-10T14:49:19;4.68;;;2.63;;
45366;SDS011;31100;55.848;37.636;2023-05-10T14:51:47;4.05;;;1.80;;
45366;SDS011;31100;55.848;37.636;2023-05-10T14:54:13;4.55;;;2.40;;
45366;SDS011;31100;55.848;37.636;2023-05-10T14:56:38;4.28;;;2.20;;
45366;SDS011;31100;55.848;37.636;2023-05-10T14:59:06;5.18;;;2.40;;
45366;SDS011;31100;55.848;37.636;2023-05-10T15:01:32;5.18;;;2.10;;
45366;SDS011;31100;55.848;37.636;2023-05-10T15:03:58;5.28;;;2.20;;
45366;SDS011;31100;55.848;37.636;2023-05-10T15:06:24;4.13;;;2.30;;
45366;SDS011;31100;55.848;37.636;2023-05-10T15:08:55;7.85;;;2.58;;
45366;SDS011;31100;55.848;37.636;2023-05-10T15:11:21;6.90;;;2.30;;
45366;SDS011;31100;55.848;37.636;2023-05-10T15:13:47;6.35;;;2.50;;
45366;SDS011;31100;55.848;37.636;2023-05-10T15:16:12;4.85;;;2.08;;
45366;SDS011;31100;55.848;37.636;2023-05-10T15:18:38;3.70;;;2.10;;
45366;SDS011;31100;55.848;37.636;2023-05-10T15:21:03;5.75;;;2.08;;